Time;durP1;ratioP1;P1;durP2;ratioP2;P2;SDS_P1;SDS_P2;PMS_P1;PMS_P2;Temp;Humidity;BMP_temperature;BMP_pressure;BME280_temperature;BME280_humidity;BME280_pressure;Samples;Min_cycle;Max_cycle;Signal;HPM_P1;HPM_P2
2024/03/09 00:00:16;;;;;;;28.50;16.45;;;;;7.10;97428.00;;;;4879938;29;20057;-67
2024/03/09 00:02:45;;;;;;;22.95;15.00;;;;;7.20;97422.00;;;;4880872;29;20045;-67
2024/03/09 00:05:12;;;;;;;24.67;15.05;;;;;7.40;97425.00;;;;4880868;29;20064;-67
2024/03/09 00:07:39;;;;;;;29.35;15.05;;;;;7.50;97426.00;;;;4879594;29;20473;-67
2024/03/09 00:10:07;;;;;;;22.35;14.63;;;;;7.60;97439.00;;;;4880513;29;20486;-67
2024/03/09 00:12:34;;;;;;;22.00;13.93;;;;;7.60;97426.00;;;;4878928;29;20061;-67
2024/03/09 00:15:03;;;;;;;22.73;14.80;;;;;7.50;97434.00;;;;4880905;29;20490;-67
2024/03/09 00:17:30;;;;;;;24.08;14.23;;;;;7.60;97424.00;;;;4879427;29;20080;-67
2024/03/09 00:20:00;;;;;;;21.65;13.73;;;;;7.70;97427.00;;;;4879273;29;20083;-67
2024/03/09 00:22:27;;;;;;;26.85;15.30;;;;;7.60;97426.00;;;;4879282;29;20049;-67
2024/03/09 00:24:54;;;;;;;26.38;15.63;;;;;7.60;97424.00;;;;4880423;29;20057;-67
2024/03/09 00:27:26;;;;;;;22.73;14.50;;;;;7.70;97420.00;;;;4879200;29;20140;-67
2024/03/09 00:29:56;;;;;;;23.85;14.85;;;;;7.80;97430.00;;;;4880059;29;20059;-67
2024/03/09 00:32:25;;;;;;;21.33;13.48;;;;;7.70;97426.00;;;;4879142;29;20151;-67
2024/03/09 00:34:52;;;;;;;23.83;14.20;;;;;7.80;97424.00;;;;4878912;29;20053;-67
2024/03/09 00:37:19;;;;;;;29.17;15.25;;;;;7.70;97419.00;;;;4878958;29;20117;-68
2024/03/09 00:39:47;;;;;;;22.55;14.57;;;;;7.60;97424.00;;;;4880091;29;20490;-67
2024/03/09 00:42:19;;;;;;;21.15;13.45;;;;;7.50;97407.00;;;;4879973;29;20045;-67
2024/03/09 00:44:46;;;;;;;20.33;12.93;;;;;7.60;97406.00;;;;4878928;29;20053;-67
2024/03/09 00:47:14;;;;;;;23.98;14.55;;;;;7.70;97397.00;;;;4878966;29;20041;-67
2024/03/09 00:49:41;;;;;;;20.73;13.13;;;;;7.70;97396.00;;;;4878851;29;20533;-67
2024/03/09 00:52:09;;;;;;;19.98;12.73;;;;;7.70;97397.00;;;;4878411;29;20063;-68
2024/03/09 00:54:37;;;;;;;17.98;12.63;;;;;7.80;97400.00;;;;4880146;29;20041;-67
2024/03/09 00:57:04;;;;;;;21.42;12.55;;;;;7.90;97400.00;;;;4879704;29;20093;-67
2024/03/09 00:59:31;;;;;;;18.60;12.07;;;;;7.90;97397.00;;;;4879921;29;20082;-67
2024/03/09 01:02:01;;;;;;;19.52;12.90;;;;;8.00;97384.00;;;;4879602;29;20170;-68
2024/03/09 01:04:27;;;;;;;20.17;13.05;;;;;7.90;97389.00;;;;4879585;29;20139;-68
2024/03/09 01:06:56;;;;;;;20.45;13.05;;;;;7.90;97387.00;;;;4880064;29;20049;-67
2024/03/09 01:09:23;;;;;;;21.30;13.55;;;;;7.90;97378.00;;;;4878563;29;20074;-67
2024/03/09 01:11:50;;;;;;;23.60;12.68;;;;;7.80;97367.00;;;;4875366;29;20061;-67
2024/03/09 01:14:17;;;;;;;22.70;14.45;;;;;7.60;97366.00;;;;4879632;29;20184;-67
2024/03/09 01:16:44;;;;;;;21.58;14.40;;;;;7.40;97362.00;;;;4879489;29;20051;-67
2024/03/09 01:19:11;;;;;;;21.70;14.05;;;;;7.40;97357.00;;;;4878435;29;20562;-67
2024/03/09 01:21:39;;;;;;;17.95;11.68;;;;;7.50;97354.00;;;;4862751;29;20052;-67
2024/03/09 01:24:06;;;;;;;15.90;11.35;;;;;7.50;97360.00;;;;4879648;29;20502;-67
2024/03/09 01:26:33;;;;;;;14.98;10.52;;;;;7.60;97358.00;;;;4879377;29;20128;-67
2024/03/09 01:28:59;;;;;;;15.52;10.98;;;;;7.70;97359.00;;;;4878100;29;20494;-67
2024/03/09 01:31:29;;;;;;;17.02;10.65;;;;;7.60;97346.00;;;;4877929;29;20056;-67
2024/03/09 01:34:00;;;;;;;18.05;10.05;;;;;7.50;97351.00;;;;4877608;29;20049;-67
2024/03/09 01:36:27;;;;;;;17.92;9.68;;;;;7.50;97349.00;;;;4877956;29;20556;-67
2024/03/09 01:38:53;;;;;;;15.25;9.68;;;;;7.50;97355.00;;;;4877870;29;20468;-68
2024/03/09 01:41:22;;;;;;;11.77;8.43;;;;;7.50;97349.00;;;;4878946;29;20037;-68
2024/03/09 01:43:49;;;;;;;12.00;7.75;;;;;7.50;97335.00;;;;4859225;29;20053;-67
2024/03/09 01:46:19;;;;;;;14.55;8.40;;;;;7.60;97339.00;;;;4874508;29;20061;-67
2024/03/09 01:48:48;;;;;;;14.15;9.15;;;;;7.60;97333.00;;;;4859365;29;20050;-67
2024/03/09 01:51:16;;;;;;;13.80;8.38;;;;;7.50;97329.00;;;;4889752;29;20091;-67
2024/03/09 01:53:45;;;;;;;12.07;8.07;;;;;7.50;97324.00;;;;4859457;29;20132;-67
2024/03/09 01:56:12;;;;;;;12.07;7.35;;;;;7.60;97325.00;;;;4859173;29;20515;-67
2024/03/09 01:58:43;;;;;;;11.52;7.15;;;;;7.50;97317.00;;;;4858749;29;20114;-67
2024/03/09 02:01:43;;;;;;;12.30;7.80;;;;;7.60;97326.00;;;;4860025;29;20072;-67
2024/03/09 02:04:04;;;;;;;14.57;8.50;;;;;7.60;97323.00;;;;4858705;29;20053;-68
2024/03/09 02:06:32;;;;;;;10.48;7.00;;;;;7.60;97328.00;;;;4889855;29;20080;-67
2024/03/09 02:08:59;;;;;;;12.95;8.32;;;;;7.70;97322.00;;;;4889490;29;20148;-67
2024/03/09 02:11:29;;;;;;;11.40;8.23;;;;;7.70;97319.00;;;;4872019;29;20406;-67
2024/03/09 02:13:59;;;;;;;11.63;8.02;;;;;7.60;97299.00;;;;4877416;29;20467;-67
2024/03/09 02:16:25;;;;;;;10.70;7.65;;;;;7.70;97308.00;;;;4877411;29;20072;-67
2024/03/09 02:18:52;;;;;;;12.10;7.55;;;;;7.60;97302.00;;;;4878351;29;20061;-67
2024/03/09 02:21:18;;;;;;;11.27;8.05;;;;;7.60;97293.00;;;;4861648;29;20060;-67
2024/03/09 02:23:47;;;;;;;10.75;7.30;;;;;7.50;97280.00;;;;4877263;29;20072;-66
2024/03/09 02:26:17;;;;;;;11.68;7.80;;;;;7.50;97268.00;;;;4877380;29;20057;-67
2024/03/09 02:28:53;;;;;;;11.10;7.75;;;;;7.40;97275.00;;;;4876992;29;20052;-67
2024/03/09 02:31:21;;;;;;;11.68;8.20;;;;;7.40;97257.00;;;;4877051;29;20057;-67
2024/03/09 02:33:51;;;;;;;12.18;7.60;;;;;7.30;97245.00;;;;4877133;29;20061;-67
2024/03/09 02:36:25;;;;;;;11.68;8.40;;;;;7.20;97260.00;;;;4877188;29;20074;-67
2024/03/09 02:38:52;;;;;;;11.18;7.50;;;;;7.20;97266.00;;;;4877083;29;20132;-67
2024/03/09 02:41:19;;;;;;;10.95;7.40;;;;;7.20;97257.00;;;;4876864;29;20049;-67
2024/03/09 02:43:46;;;;;;;14.65;8.10;;;;;7.20;97272.00;;;;4877068;29;20579;-67
2024/03/09 02:46:17;;;;;;;13.15;7.78;;;;;7.10;97270.00;;;;4881872;29;20045;-67
2024/03/09 02:48:44;;;;;;;11.68;8.10;;;;;7.10;97265.00;;;;4881223;29;20049;-67
2024/03/09 02:51:16;;;;;;;12.25;8.10;;;;;7.10;97260.00;;;;4881951;29;20049;-67
2024/03/09 02:53:43;;;;;;;11.93;7.95;;;;;7.00;97260.00;;;;4882404;29;20081;-67
2024/03/09 02:56:18;;;;;;;12.93;8.32;;;;;7.00;97249.00;;;;4880943;29;20051;-67
2024/03/09 02:58:45;;;;;;;12.50;8.23;;;;;7.00;97252.00;;;;4880603;29;20037;-67
2024/03/09 03:01:13;;;;;;;12.48;7.68;;;;;7.00;97247.00;;;;4865012;29;20435;-67
2024/03/09 03:03:47;;;;;;;12.20;7.80;;;;;6.90;97258.00;;;;4880727;29;20426;-67
2024/03/09 03:06:18;;;;;;;12.20;8.50;;;;;6.90;97257.00;;;;4880777;29;20124;-67
2024/03/09 03:08:48;;;;;;;11.95;7.70;;;;;6.90;97257.00;;;;4880655;29;20052;-67
2024/03/09 03:11:18;;;;;;;13.63;8.85;;;;;6.90;97257.00;;;;4887103;29;20084;-67
2024/03/09 03:13:46;;;;;;;13.27;8.75;;;;;7.00;97259.00;;;;4880560;29;20128;-67
2024/03/09 03:16:36;;;;;;;12.02;7.72;;;;;7.00;97258.00;;;;4865327;29;20056;-67
2024/03/09 03:19:06;;;;;;;12.30;8.60;;;;;7.00;97256.00;;;;4880237;29;20049;-67
2024/03/09 03:21:34;;;;;;;15.88;8.43;;;;;7.00;97270.00;;;;4881522;29;20402;-67
2024/03/09 03:24:04;;;;;;;16.90;9.00;;;;;7.10;97267.00;;;;4881553;29;20056;-67
2024/03/09 03:26:31;;;;;;;12.98;8.27;;;;;7.10;97266.00;;;;4880241;29;20076;-67
2024/03/09 03:29:01;;;;;;;12.20;8.43;;;;;7.10;97256.00;;;;4881407;29;20417;-68
2024/03/09 03:31:29;;;;;;;13.82;8.02;;;;;7.10;97255.00;;;;4880004;29;20578;-67
2024/03/09 03:33:56;;;;;;;13.50;8.93;;;;;7.00;97257.00;;;;4881460;29;20045;-67
2024/03/09 03:36:23;;;;;;;13.75;8.52;;;;;7.00;97249.00;;;;4881490;29;20132;-67
2024/03/09 03:38:50;;;;;;;13.07;9.15;;;;;6.90;97253.00;;;;4883420;29;20052;-67
2024/03/09 03:41:19;;;;;;;14.45;9.52;;;;;6.90;97255.00;;;;4882654;29;20045;-68
2024/03/09 03:43:45;;;;;;;13.43;9.07;;;;;6.90;97260.00;;;;4881816;29;20080;-68
2024/03/09 03:46:14;;;;;;;11.57;8.45;;;;;6.90;97265.00;;;;4880613;29;20053;-68
2024/03/09 03:48:44;;;;;;;15.57;8.85;;;;;6.90;97260.00;;;;4879971;29;20127;-68
2024/03/09 03:51:13;;;;;;;12.00;8.40;;;;;6.90;97249.00;;;;4864198;29;20144;-68
2024/03/09 03:53:41;;;;;;;15.30;8.18;;;;;6.80;97260.00;;;;4879919;29;20478;-68
2024/03/09 03:56:09;;;;;;;12.75;9.35;;;;;6.80;97261.00;;;;4879656;29;20052;-68
2024/03/09 03:58:41;;;;;;;13.60;9.30;;;;;6.70;97254.00;;;;4880911;29;20083;-68
2024/03/09 04:01:08;;;;;;;15.55;9.25;;;;;6.70;97249.00;;;;4879609;29;20045;-68
2024/03/09 04:03:37;;;;;;;13.70;9.20;;;;;6.70;97248.00;;;;4864253;29;20080;-68
2024/03/09 04:06:04;;;;;;;14.07;9.43;;;;;6.70;97241.00;;;;4879902;29;20061;-68
2024/03/09 04:08:31;;;;;;;15.05;9.57;;;;;6.60;97235.00;;;;4880982;29;20041;-68
2024/03/09 04:10:59;;;;;;;14.35;9.43;;;;;6.60;97243.00;;;;4879353;29;20400;-68
2024/03/09 04:13:27;;;;;;;14.23;10.30;;;;;6.70;97242.00;;;;4879671;29;20505;-68
2024/03/09 04:15:55;;;;;;;14.93;9.27;;;;;6.80;97238.00;;;;4880901;29;20048;-68
2024/03/09 04:18:23;;;;;;;17.88;10.07;;;;;6.80;97244.00;;;;4880537;29;20055;-68
2024/03/09 04:20:49;;;;;;;15.57;10.30;;;;;6.70;97243.00;;;;4880279;29;20068;-68
2024/03/09 04:23:17;;;;;;;15.60;10.05;;;;;6.70;97253.00;;;;4881624;29;20399;-68
2024/03/09 04:25:46;;;;;;;13.95;10.15;;;;;6.60;97256.00;;;;4881277;29;20545;-67
2024/03/09 04:28:20;;;;;;;17.02;10.27;;;;;6.80;97248.00;;;;4881802;29;20119;-67
2024/03/09 04:30:49;;;;;;;16.27;9.90;;;;;6.80;97248.00;;;;4882105;29;20056;-68
2024/03/09 04:33:17;;;;;;;14.48;9.90;;;;;6.80;97239.00;;;;4866961;29;20053;-67
2024/03/09 04:35:47;;;;;;;17.23;11.23;;;;;6.60;97243.00;;;;4884037;29;20045;-67
2024/03/09 04:38:15;;;;;;;17.67;10.20;;;;;6.60;97235.00;;;;4883659;29;20052;-68
2024/03/09 04:40:48;;;;;;;16.67;10.55;;;;;6.60;97237.00;;;;4888648;29;20109;-68
2024/03/09 04:43:17;;;;;;;15.25;10.73;;;;;6.60;97232.00;;;;4882108;29;20077;-67
2024/03/09 04:45:45;;;;;;;19.60;11.32;;;;;6.60;97228.00;;;;4886485;29;20500;-68
2024/03/09 04:48:13;;;;;;;14.52;10.48;;;;;6.70;97219.00;;;;4881472;29;20097;-68
2024/03/09 04:50:46;;;;;;;18.80;11.77;;;;;6.60;97219.00;;;;4879781;29;20060;-69
2024/03/09 04:53:13;;;;;;;16.52;10.93;;;;;6.50;97218.00;;;;4880384;29;20041;-68
2024/03/09 04:55:44;;;;;;;15.93;10.55;;;;;6.40;97211.00;;;;4863812;29;20056;-67
2024/03/09 04:58:17;;;;;;;17.25;10.82;;;;;6.50;97213.00;;;;4879074;29;20041;-67
2024/03/09 05:00:45;;;;;;;17.33;11.43;;;;;6.60;97215.00;;;;4879044;29;20495;-69
2024/03/09 05:03:12;;;;;;;17.60;11.05;;;;;6.60;97225.00;;;;4863319;29;20053;-68
2024/03/09 05:05:40;;;;;;;19.35;11.13;;;;;6.60;97222.00;;;;4863227;29;20059;-68
2024/03/09 05:08:08;;;;;;;17.48;10.93;;;;;6.70;97228.00;;;;4877809;29;20097;-68
2024/03/09 05:10:36;;;;;;;15.98;11.15;;;;;6.70;97234.00;;;;4893737;29;20087;-68
2024/03/09 05:13:04;;;;;;;17.13;10.75;;;;;6.80;97224.00;;;;4863086;29;20184;-68
2024/03/09 05:15:31;;;;;;;16.73;10.75;;;;;6.70;97226.00;;;;4863037;29;20052;-68
2024/03/09 05:17:59;;;;;;;16.40;11.30;;;;;6.70;97232.00;;;;4878341;29;20059;-68
2024/03/09 05:20:27;;;;;;;15.82;10.63;;;;;6.50;97217.00;;;;4881289;29;20057;-68
2024/03/09 05:22:57;;;;;;;15.43;10.25;;;;;6.50;97219.00;;;;4880933;29;20053;-68
2024/03/09 05:25:23;;;;;;;15.70;11.10;;;;;6.50;97223.00;;;;4879523;29;20144;-68
2024/03/09 05:27:51;;;;;;;16.73;10.55;;;;;6.50;97208.00;;;;4878408;29;20571;-67
2024/03/09 05:30:24;;;;;;;16.52;10.07;;;;;6.40;97208.00;;;;4862529;29;20049;-67
2024/03/09 05:32:57;;;;;;;16.65;10.43;;;;;6.30;97205.00;;;;4879609;29;20071;-68
2024/03/09 05:35:28;;;;;;;15.70;9.60;;;;;6.30;97196.00;;;;4878486;29;20049;-68
2024/03/09 05:38:04;;;;;;;21.30;12.25;;;;;6.20;97187.00;;;;4878009;29;20414;-68
2024/03/09 05:40:33;;;;;;;19.35;10.60;;;;;6.20;97190.00;;;;4861537;29;20054;-67
2024/03/09 05:43:04;;;;;;;19.05;10.57;;;;;6.20;97192.00;;;;4878016;29;20407;-69
2024/03/09 05:45:30;;;;;;;16.73;11.10;;;;;6.20;97200.00;;;;4879443;29;20045;-69
2024/03/09 05:47:58;;;;;;;17.25;10.68;;;;;6.20;97193.00;;;;4878114;29;20093;-69
2024/03/09 05:50:32;;;;;;;15.20;9.93;;;;;6.20;97196.00;;;;4879069;29;20049;-68
2024/03/09 05:53:00;;;;;;;16.75;10.45;;;;;6.20;97212.00;;;;4877931;29;20053;-69
2024/03/09 05:55:28;;;;;;;16.50;11.07;;;;;6.20;97210.00;;;;4877891;29;20053;-69
2024/03/09 05:57:56;;;;;;;15.00;10.50;;;;;6.20;97206.00;;;;4878977;29;20049;-69
2024/03/09 06:00:24;;;;;;;28.13;16.30;;;;;6.10;97213.00;;;;4877005;29;20041;-69
2024/03/09 06:02:52;;;;;;;21.83;13.05;;;;;6.10;97210.00;;;;4862361;29;20059;-69
2024/03/09 06:05:28;;;;;;;20.40;12.75;;;;;6.10;97201.00;;;;4877778;29;20049;-69
2024/03/09 06:07:57;;;;;;;18.88;11.57;;;;;6.10;97202.00;;;;4877565;29;20503;-69
2024/03/09 06:10:24;;;;;;;16.67;11.18;;;;;6.10;97205.00;;;;4877335;29;20506;-70
2024/03/09 06:12:52;;;;;;;19.65;11.60;;;;;6.10;97219.00;;;;4871213;29;20234;-69
2024/03/09 06:15:20;;;;;;;17.90;11.93;;;;;6.10;97208.00;;;;4862217;29;20061;-69
2024/03/09 06:17:50;;;;;;;19.23;11.18;;;;;6.10;97199.00;;;;4878591;29;20093;-69
2024/03/09 06:20:17;;;;;;;16.80;10.52;;;;;6.10;97209.00;;;;4876274;29;20463;-70
2024/03/09 06:22:45;;;;;;;17.48;10.65;;;;;6.10;97207.00;;;;4862067;29;20060;-70
2024/03/09 06:25:22;;;;;;;19.27;11.55;;;;;6.20;97208.00;;;;4877178;29;20147;-70
2024/03/09 06:27:50;;;;;;;15.60;11.15;;;;;6.10;97205.00;;;;4879214;29;20403;-70
2024/03/09 06:30:17;;;;;;;18.50;11.18;;;;;6.20;97216.00;;;;4877845;29;20097;-70
2024/03/09 06:32:44;;;;;;;18.38;12.15;;;;;6.30;97213.00;;;;4878677;29;20554;-71
2024/03/09 06:35:11;;;;;;;18.40;11.77;;;;;6.30;97206.00;;;;4877315;29;20076;-70
2024/03/09 06:37:38;;;;;;;18.73;12.05;;;;;6.30;97210.00;;;;4878394;29;20047;-70
2024/03/09 06:40:06;;;;;;;21.73;14.05;;;;;6.30;97206.00;;;;4878120;29;20052;-70
2024/03/09 06:42:32;;;;;;;21.95;14.55;;;;;6.50;97211.00;;;;4869360;29;20073;-69
2024/03/09 06:44:59;;;;;;;20.73;12.25;;;;;6.50;97213.00;;;;4877261;29;20499;-70
2024/03/09 06:47:26;;;;;;;20.50;12.45;;;;;6.60;97213.00;;;;4878573;29;20053;-70
2024/03/09 06:49:55;;;;;;;19.95;13.07;;;;;6.60;97206.00;;;;4877032;29;20454;-70
2024/03/09 06:52:22;;;;;;;18.40;11.50;;;;;6.70;97209.00;;;;4876872;29;20041;-69
2024/03/09 06:54:49;;;;;;;19.25;12.05;;;;;6.70;97212.00;;;;4878467;29;20124;-70
2024/03/09 06:57:16;;;;;;;18.33;11.43;;;;;6.70;97207.00;;;;4878563;29;20078;-69
2024/03/09 06:59:43;;;;;;;19.35;13.13;;;;;6.80;97208.00;;;;4878962;29;20052;-70
2024/03/09 07:02:10;;;;;;;22.92;13.90;;;;;6.80;97219.00;;;;4886023;29;20045;-70
2024/03/09 07:04:37;;;;;;;24.10;14.98;;;;;6.80;97212.00;;;;4891542;29;20056;-68
2024/03/09 07:07:04;;;;;;;19.45;13.43;;;;;6.90;97213.00;;;;4878586;29;20053;-68
2024/03/09 07:09:30;;;;;;;20.88;12.20;;;;;6.80;97206.00;;;;4878256;29;20069;-68
2024/03/09 07:11:59;;;;;;;20.63;13.45;;;;;6.80;97205.00;;;;4908224;29;20405;-69
2024/03/09 07:14:26;;;;;;;21.38;12.68;;;;;6.90;97211.00;;;;4877031;29;20045;-69
2024/03/09 07:16:53;;;;;;;19.02;11.65;;;;;7.00;97224.00;;;;4876947;29;20059;-69
2024/03/09 07:19:20;;;;;;;23.25;13.43;;;;;7.00;97224.00;;;;4878187;29;20550;-69
2024/03/09 07:21:47;;;;;;;20.73;13.65;;;;;7.00;97221.00;;;;4876639;29;20057;-67
2024/03/09 07:24:14;;;;;;;20.35;12.40;;;;;7.00;97229.00;;;;4877955;29;20049;-69
2024/03/09 07:26:41;;;;;;;20.63;13.32;;;;;7.10;97228.00;;;;4876849;29;20072;-69
2024/03/09 07:29:07;;;;;;;19.60;12.65;;;;;7.00;97223.00;;;;4876790;29;20045;-69
2024/03/09 07:31:34;;;;;;;20.80;13.00;;;;;7.10;97224.00;;;;4880300;29;20048;-69
2024/03/09 07:34:00;;;;;;;17.52;12.27;;;;;7.10;97227.00;;;;4880217;29;20056;-70
2024/03/09 07:36:27;;;;;;;20.33;14.05;;;;;7.10;97228.00;;;;4880283;29;20414;-70
2024/03/09 07:38:54;;;;;;;19.77;12.68;;;;;7.20;97230.00;;;;4881250;29;20116;-70
2024/03/09 07:41:21;;;;;;;27.13;17.63;;;;;7.20;97227.00;;;;4879554;29;20155;-70
2024/03/09 07:43:48;;;;;;;24.17;14.68;;;;;7.20;97234.00;;;;4881156;29;20056;-70
2024/03/09 07:46:15;;;;;;;19.00;13.27;;;;;7.30;97232.00;;;;4881329;29;20116;-70
2024/03/09 07:48:41;;;;;;;18.50;12.25;;;;;7.50;97228.00;;;;4879967;29;20049;-71
2024/03/09 07:51:10;;;;;;;19.25;12.57;;;;;7.50;97223.00;;;;4880972;29;20056;-71
2024/03/09 07:53:40;;;;;;;17.98;12.45;;;;;7.50;97219.00;;;;4879697;29;20048;-70
2024/03/09 07:56:06;;;;;;;17.98;12.48;;;;;7.60;97220.00;;;;4880909;29;20100;-70
2024/03/09 07:58:37;;;;;;;19.15;12.82;;;;;7.70;97216.00;;;;4880852;29;20052;-68
2024/03/09 08:01:05;;;;;;;20.73;12.80;;;;;7.80;97226.00;;;;4879360;29;20041;-70
2024/03/09 08:03:33;;;;;;;19.23;13.00;;;;;7.90;97220.00;;;;4879838;29;20049;-71
2024/03/09 08:06:00;;;;;;;19.55;12.93;;;;;7.90;97216.00;;;;4879832;29;20452;-70
2024/03/09 08:08:26;;;;;;;22.85;12.93;;;;;7.90;97209.00;;;;4880771;29;20045;-70
2024/03/09 08:10:53;;;;;;;21.65;12.77;;;;;8.00;97203.00;;;;4880274;29;20057;-72
2024/03/09 08:13:22;;;;;;;16.85;11.65;;;;;8.10;97204.00;;;;4869470;29;20117;-72
2024/03/09 08:15:52;;;;;;;18.80;12.23;;;;;8.20;97211.00;;;;4862124;29;20496;-72
2024/03/09 08:18:20;;;;;;;20.60;12.57;;;;;8.20;97204.00;;;;4862310;29;20049;-72
2024/03/09 08:20:46;;;;;;;23.20;15.60;;;;;8.30;97209.00;;;;4861982;29;20041;-72
2024/03/09 08:23:13;;;;;;;19.35;13.82;;;;;8.30;97207.00;;;;4862159;29;20409;-72
2024/03/09 08:25:41;;;;;;;31.50;21.63;;;;;8.50;97201.00;;;;4862159;29;20045;-72
2024/03/09 08:28:08;;;;;;;24.50;16.67;;;;;8.50;97196.00;;;;4876375;29;20049;-72
2024/03/09 08:30:35;;;;;;;19.50;13.57;;;;;8.60;97193.00;;;;4861896;29;20045;-72
2024/03/09 08:33:04;;;;;;;20.27;13.13;;;;;8.70;97182.00;;;;4891622;29;20059;-72
2024/03/09 08:35:33;;;;;;;23.48;12.57;;;;;8.70;97178.00;;;;4861846;29;20124;-72
2024/03/09 08:38:00;;;;;;;20.35;12.77;;;;;8.80;97171.00;;;;4876165;29;20101;-72
2024/03/09 08:40:27;;;;;;;22.35;11.85;;;;;9.00;97173.00;;;;4870538;29;20455;-72
2024/03/09 08:42:54;;;;;;;23.83;13.75;;;;;9.00;97166.00;;;;4889689;29;20057;-72
2024/03/09 08:45:23;;;;;;;19.65;11.75;;;;;9.10;97170.00;;;;4897095;29;20082;-72
2024/03/09 08:47:51;;;;;;;19.23;13.68;;;;;9.20;97164.00;;;;4874443;29;20087;-72
2024/03/09 08:50:22;;;;;;;22.90;13.35;;;;;9.40;97163.00;;;;4880380;29;20049;-72
2024/03/09 08:52:50;;;;;;;18.15;11.63;;;;;9.50;97155.00;;;;4880483;29;20064;-72
2024/03/09 08:55:18;;;;;;;19.98;12.57;;;;;9.60;97160.00;;;;4879882;29;20049;-73
2024/03/09 08:57:47;;;;;;;25.42;15.13;;;;;9.70;97152.00;;;;4881217;29;20056;-70
2024/03/09 09:00:19;;;;;;;18.65;11.88;;;;;9.90;97160.00;;;;4880867;29;20052;-70
2024/03/09 09:02:49;;;;;;;17.60;12.02;;;;;10.00;97159.00;;;;4880878;29;20093;-73
2024/03/09 09:05:18;;;;;;;18.38;12.23;;;;;10.10;97157.00;;;;4880177;29;20052;-73
2024/03/09 09:07:46;;;;;;;18.67;12.75;;;;;10.10;97152.00;;;;4863568;29;20531;-73
2024/03/09 09:10:17;;;;;;;19.60;12.48;;;;;10.30;97151.00;;;;4878512;29;20578;-73
2024/03/09 09:12:45;;;;;;;18.35;12.45;;;;;10.50;97155.00;;;;4880011;29;20498;-73
2024/03/09 09:15:16;;;;;;;16.50;12.07;;;;;10.60;97165.00;;;;4879802;29;20409;-72
2024/03/09 09:17:43;;;;;;;18.77;11.77;;;;;10.70;97160.00;;;;4879844;29;20052;-72
2024/03/09 09:20:11;;;;;;;17.92;11.85;;;;;10.70;97170.00;;;;4878612;29;20080;-72
2024/03/09 09:22:39;;;;;;;17.40;11.10;;;;;10.80;97170.00;;;;4863149;29;20049;-72
2024/03/09 09:25:09;;;;;;;15.68;10.50;;;;;10.90;97165.00;;;;4863145;29;20513;-73
2024/03/09 09:27:37;;;;;;;17.80;12.00;;;;;10.90;97161.00;;;;4879815;29;20072;-73
2024/03/09 09:30:05;;;;;;;18.92;12.20;;;;;11.10;97168.00;;;;4878152;29;20045;-72
2024/03/09 09:32:32;;;;;;;17.17;11.68;;;;;11.20;97156.00;;;;4878183;29;20077;-73
2024/03/09 09:35:02;;;;;;;16.23;9.80;;;;;11.20;97153.00;;;;4879536;29;20052;-73
2024/03/09 09:37:29;;;;;;;13.93;10.15;;;;;11.30;97148.00;;;;4862911;29;20057;-73
2024/03/09 09:39:56;;;;;;;15.80;11.00;;;;;11.40;97148.00;;;;4879338;29;20124;-74
2024/03/09 09:42:29;;;;;;;15.55;10.35;;;;;11.40;97141.00;;;;4878441;29;20570;-72
2024/03/09 09:44:57;;;;;;;17.48;11.70;;;;;11.50;97143.00;;;;4879300;29;20049;-74
2024/03/09 09:47:25;;;;;;;26.83;17.00;;;;;11.70;97138.00;;;;4879322;29;20052;-71
2024/03/09 09:49:54;;;;;;;14.82;10.70;;;;;11.70;97128.00;;;;4878128;29;20128;-72
2024/03/09 09:52:24;;;;;;;17.13;10.90;;;;;11.90;97126.00;;;;4877794;29;20060;-72
2024/03/09 09:54:55;;;;;;;15.82;10.52;;;;;11.90;97120.00;;;;4877787;29;20076;-72
2024/03/09 09:57:24;;;;;;;14.98;9.82;;;;;12.00;97114.00;;;;4879259;29;20045;-72
2024/03/09 09:59:51;;;;;;;14.95;10.48;;;;;12.20;97118.00;;;;4879510;29;20554;-73
2024/03/09 10:02:21;;;;;;;16.90;11.07;;;;;12.40;97109.00;;;;4877398;29;20113;-72
2024/03/09 10:04:52;;;;;;;15.70;10.85;;;;;12.40;97099.00;;;;4877781;29;20047;-75
2024/03/09 10:07:19;;;;;;;14.52;9.65;;;;;12.40;97104.00;;;;4878919;29;20052;-71
2024/03/09 10:09:47;;;;;;;15.15;10.32;;;;;12.50;97095.00;;;;4877824;29;20491;-71
2024/03/09 10:12:23;;;;;;;17.25;10.85;;;;;12.50;97088.00;;;;4878828;29;20056;-71
2024/03/09 10:14:52;;;;;;;17.90;11.45;;;;;12.70;97097.00;;;;4877897;29;20087;-72
2024/03/09 10:17:22;;;;;;;14.90;10.43;;;;;12.90;97097.00;;;;4878857;29;20073;-72
2024/03/09 10:19:49;;;;;;;14.85;10.00;;;;;13.00;97095.00;;;;4862342;29;20516;-71
2024/03/09 10:22:16;;;;;;;17.40;10.30;;;;;13.10;97100.00;;;;4878883;29;20633;-72
2024/03/09 10:24:56;;;;;;;12.55;9.23;;;;;13.30;97098.00;;;;4877996;29;20055;-72
2024/03/09 10:27:26;;;;;;;16.00;9.73;;;;;13.30;97097.00;;;;4865007;29;20052;-72
2024/03/09 10:30:10;;;;;;;12.48;8.75;;;;;13.50;97099.00;;;;4892964;29;20044;-72
2024/03/09 10:32:41;;;;;;;12.13;9.13;;;;;13.50;97094.00;;;;4888716;29;20109;-72
2024/03/09 10:35:09;;;;;;;13.27;9.00;;;;;13.50;97097.00;;;;4879091;29;20486;-74
2024/03/09 10:37:40;;;;;;;14.68;9.20;;;;;13.50;97081.00;;;;4877324;29;20053;-73
2024/03/09 10:40:14;;;;;;;15.52;10.15;;;;;13.50;97077.00;;;;4884058;29;20066;-72
2024/03/09 10:42:45;;;;;;;15.25;10.35;;;;;13.60;97064.00;;;;4862222;29;20053;-73
2024/03/09 10:45:15;;;;;;;13.25;9.18;;;;;13.60;97060.00;;;;4862891;29;20049;-72
2024/03/09 10:47:50;;;;;;;14.35;8.57;;;;;13.60;97064.00;;;;4879308;29;20127;-73
2024/03/09 10:50:23;;;;;;;11.82;8.57;;;;;13.60;97062.00;;;;4878925;29;20490;-73
2024/03/09 10:53:07;;;;;;;13.45;8.90;;;;;13.60;97056.00;;;;4877964;29;20545;-73
2024/03/09 10:55:48;;;;;;;13.88;8.18;;;;;13.60;97051.00;;;;4878673;29;20064;-73
2024/03/09 10:58:16;;;;;;;13.77;8.07;;;;;13.70;97052.00;;;;4861623;29;20148;-73
2024/03/09 11:00:49;;;;;;;13.23;8.32;;;;;13.90;97046.00;;;;4876886;29;20417;-73
2024/03/09 11:03:21;;;;;;;11.18;7.60;;;;;14.20;97051.00;;;;4877142;29;20069;-73
2024/03/09 11:05:53;;;;;;;11.93;8.23;;;;;14.60;97048.00;;;;4879629;29;20537;-73
2024/03/09 11:08:21;;;;;;;15.85;8.13;;;;;14.70;97052.00;;;;4865290;29;20057;-73
2024/03/09 11:10:49;;;;;;;10.23;7.22;;;;;14.80;97047.00;;;;4881419;29;20037;-73
2024/03/09 11:13:19;;;;;;;11.73;7.32;;;;;14.70;97049.00;;;;4873161;29;20045;-73
2024/03/09 11:15:51;;;;;;;11.52;7.40;;;;;14.80;97048.00;;;;4882389;29;20049;-74
2024/03/09 11:18:21;;;;;;;13.53;8.00;;;;;14.90;97049.00;;;;4882069;29;20049;-73
2024/03/09 11:20:59;;;;;;;9.52;7.35;;;;;14.90;97045.00;;;;4882542;29;20045;-73
2024/03/09 11:23:32;;;;;;;11.25;7.85;;;;;15.00;97051.00;;;;4883787;29;20077;-73
2024/03/09 11:26:00;;;;;;;13.18;8.35;;;;;14.80;97043.00;;;;4882561;29;20048;-73
2024/03/09 11:28:51;;;;;;;9.50;7.43;;;;;14.90;97052.00;;;;4881368;29;20072;-73
2024/03/09 11:31:26;;;;;;;11.30;7.85;;;;;14.90;97045.00;;;;4881939;29;20486;-74
2024/03/09 11:34:05;;;;;;;12.15;7.63;;;;;14.90;97041.00;;;;4881694;29;20049;-73
2024/03/09 11:36:56;;;;;;;11.40;7.75;;;;;15.00;97038.00;;;;4881547;29;20124;-72
2024/03/09 11:39:33;;;;;;;12.13;7.65;;;;;15.00;97038.00;;;;4881369;29;20061;-72
2024/03/09 11:42:06;;;;;;;9.05;7.43;;;;;15.00;97030.00;;;;4879662;29;20045;-72
2024/03/09 11:44:33;;;;;;;12.90;8.55;;;;;15.00;97023.00;;;;4879903;29;20045;-71
2024/03/09 11:47:03;;;;;;;12.48;7.97;;;;;15.00;97024.00;;;;4880363;29;20483;-70
2024/03/09 11:49:33;;;;;;;10.55;7.93;;;;;15.10;97025.00;;;;4879705;29;20068;-69
2024/03/09 11:52:02;;;;;;;10.82;7.40;;;;;15.10;97024.00;;;;4864291;29;20045;-72
2024/03/09 11:54:29;;;;;;;11.32;7.63;;;;;15.30;97022.00;;;;4880864;29;20174;-73
2024/03/09 11:56:56;;;;;;;9.98;7.32;;;;;15.40;97018.00;;;;4881266;29;20048;-73
2024/03/09 11:59:23;;;;;;;9.82;7.38;;;;;15.60;97018.00;;;;4879689;29;20049;-73
2024/03/09 12:02:02;;;;;;;10.05;7.82;;;;;15.60;97006.00;;;;4880761;29;20132;-73
2024/03/09 12:04:32;;;;;;;9.52;7.50;;;;;15.60;97009.00;;;;4879861;29;20091;-74
2024/03/09 12:07:07;;;;;;;11.23;7.35;;;;;15.50;97011.00;;;;4864594;29;20391;-72
2024/03/09 12:09:35;;;;;;;8.77;6.97;;;;;15.50;97003.00;;;;4883134;29;20049;-73
2024/03/09 12:12:14;;;;;;;10.25;6.90;;;;;15.50;97006.00;;;;4897347;29;20068;-71
2024/03/09 12:14:43;;;;;;;9.50;6.55;;;;;15.50;97005.00;;;;4896986;29;20045;-73
2024/03/09 12:17:13;;;;;;;7.85;5.72;;;;;15.50;97005.00;;;;4881145;29;20053;-73